createdAt,value
2023-07-19T00:00:29.619Z,30.59
2023-07-19T00:01:29.733Z,28.45
2023-07-19T00:02:29.788Z,29.52
2023-07-19T00:03:29.798Z,28.38
2023-07-19T00:04:29.861Z,29.12
2023-07-19T00:05:29.930Z,28.75
2023-07-19T00:06:29.940Z,28.44
2023-07-19T00:07:30.039Z,27.94
2023-07-19T00:08:30.066Z,34.08
2023-07-19T00:09:30.125Z,28.05
2023-07-19T00:10:30.170Z,29.23
2023-07-19T00:11:30.241Z,31.74
2023-07-19T00:12:36.401Z,28.14
2023-07-19T00:13:31.276Z,28.45
2023-07-19T00:14:30.255Z,28.81
2023-07-19T00:15:30.267Z,29.78
2023-07-19T00:16:30.279Z,30.21
2023-07-19T00:17:30.244Z,28.12
2023-07-19T00:18:30.244Z,29.83
2023-07-19T00:19:30.230Z,29.92
2023-07-19T00:20:30.258Z,28.78
2023-07-19T00:21:30.322Z,28.11
2023-07-19T00:22:30.263Z,30.47
2023-07-19T00:23:30.175Z,30.29
2023-07-19T00:24:30.215Z,28.91
2023-07-19T00:25:30.296Z,30.47
2023-07-19T00:26:30.305Z,26.66
2023-07-19T00:27:30.367Z,26.86
2023-07-19T00:28:30.408Z,32.65
2023-07-19T00:29:30.473Z,28.29
2023-07-19T00:30:30.506Z,32.69
2023-07-19T00:31:30.539Z,28.85
2023-07-19T00:32:30.626Z,29.27
2023-07-19T00:33:30.633Z,28.54
2023-07-19T00:34:30.747Z,30.55
2023-07-19T00:35:30.745Z,29.14
2023-07-19T00:36:30.776Z,30.33
2023-07-19T00:37:30.857Z,29.83
2023-07-19T00:38:30.898Z,28.09
2023-07-19T00:39:30.926Z,28.65
2023-07-19T00:40:30.964Z,28.13
2023-07-19T00:41:31.032Z,29.17
2023-07-19T00:42:31.064Z,29.80
2023-07-19T00:43:31.149Z,29.04
2023-07-19T00:44:31.170Z,28.07
2023-07-19T00:45:31.238Z,29.01
2023-07-19T00:46:31.360Z,30.05
2023-07-19T00:47:31.388Z,27.81
2023-07-19T00:48:31.382Z,31.78
2023-07-19T00:49:31.411Z,26.70
2023-07-19T00:50:31.455Z,30.47
2023-07-19T00:51:31.545Z,26.52
2023-07-19T00:52:31.556Z,28.75
2023-07-19T00:53:31.616Z,28.20
2023-07-19T00:54:31.654Z,26.70
2023-07-19T00:55:31.689Z,31.08
2023-07-19T00:56:31.751Z,28.44
2023-07-19T00:57:31.802Z,26.87
2023-07-19T00:58:31.841Z,29.62
2023-07-19T00:59:31.902Z,29.21
2023-07-19T01:00:31.983Z,28.15
2023-07-19T01:01:32.064Z,27.93
2023-07-19T01:02:32.106Z,29.18
2023-07-19T01:03:32.109Z,29.31
2023-07-19T01:04:32.157Z,28.55
2023-07-19T01:05:32.210Z,27.97
2023-07-19T01:06:32.261Z,25.83
2023-07-19T01:07:32.287Z,28.34
2023-07-19T01:08:32.410Z,26.59
2023-07-19T01:09:32.407Z,29.81
2023-07-19T01:10:32.451Z,30.25
2023-07-19T01:11:32.499Z,28.57
2023-07-19T01:12:32.519Z,28.04
2023-07-19T01:13:32.605Z,30.07
2023-07-19T01:14:32.627Z,26.13
2023-07-19T01:15:32.664Z,29.52
2023-07-19T01:16:32.766Z,32.96
2023-07-19T01:17:32.796Z,30.53
2023-07-19T01:18:32.844Z,27.13
2023-07-19T01:19:32.915Z,25.54
2023-07-19T01:20:32.944Z,30.10
2023-07-19T01:21:33.310Z,28.48
2023-07-19T01:22:33.089Z,30.47
2023-07-19T01:23:33.107Z,27.67
2023-07-19T01:24:33.140Z,34.20
2023-07-19T01:25:33.186Z,29.28
2023-07-19T01:26:33.243Z,31.25
2023-07-19T01:27:33.291Z,30.17
2023-07-19T01:28:33.340Z,31.42
2023-07-19T01:29:33.406Z,31.28
2023-07-19T01:30:33.443Z,32.77
2023-07-19T01:31:33.540Z,32.19
2023-07-19T01:32:33.581Z,30.50
2023-07-19T01:33:34.507Z,29.08
2023-07-19T01:34:33.624Z,34.15
2023-07-19T01:35:33.701Z,29.29
2023-07-19T01:36:33.759Z,34.21
2023-07-19T01:37:33.783Z,29.75
2023-07-19T01:38:33.850Z,31.16
2023-07-19T01:39:33.887Z,29.78
2023-07-19T01:40:33.944Z,33.20
2023-07-19T01:41:33.981Z,29.76
2023-07-19T01:42:34.095Z,29.40
2023-07-19T01:43:34.118Z,31.64
2023-07-19T01:44:34.194Z,31.38
2023-07-19T01:45:34.257Z,31.10
2023-07-19T01:46:34.283Z,32.66
2023-07-19T01:47:34.417Z,29.23
2023-07-19T01:48:34.414Z,30.50
2023-07-19T01:49:34.442Z,29.98
2023-07-19T01:50:34.463Z,28.89
2023-07-19T01:51:34.534Z,32.34
2023-07-19T01:52:34.593Z,34.34
2023-07-19T01:53:34.708Z,31.59
2023-07-19T01:54:34.706Z,33.00
2023-07-19T01:55:34.761Z,30.47
2023-07-19T01:56:34.808Z,29.49
2023-07-19T01:57:34.840Z,34.27
2023-07-19T01:58:34.889Z,35.75
2023-07-19T01:59:34.950Z,29.55
2023-07-19T02:00:35.040Z,29.98
2023-07-19T02:01:35.164Z,28.67
2023-07-19T02:02:35.314Z,26.20
2023-07-19T02:03:35.219Z,33.17
2023-07-19T02:04:35.365Z,30.50
2023-07-19T02:05:35.358Z,31.38
2023-07-19T02:06:35.329Z,30.24
2023-07-19T02:07:35.376Z,32.00
2023-07-19T02:08:35.434Z,28.84
2023-07-19T02:09:35.541Z,30.32
2023-07-19T02:10:35.522Z,35.43
2023-07-19T02:11:35.701Z,33.23
2023-07-19T02:12:35.665Z,32.55
2023-07-19T02:13:35.704Z,31.88
2023-07-19T02:14:35.783Z,31.49
2023-07-19T02:15:35.860Z,32.33
2023-07-19T02:16:35.887Z,32.22
2023-07-19T02:17:36.016Z,35.86
2023-07-19T02:18:35.968Z,32.27
2023-07-19T02:19:36.053Z,32.64
2023-07-19T02:20:36.103Z,34.47
2023-07-19T02:21:36.146Z,30.17
2023-07-19T02:22:36.332Z,32.64
2023-07-19T02:23:36.285Z,28.45
2023-07-19T02:24:36.318Z,36.14
2023-07-19T02:25:36.391Z,35.41
2023-07-19T02:26:36.437Z,31.10
2023-07-19T02:27:36.491Z,32.21
2023-07-19T02:28:36.528Z,30.98
2023-07-19T02:29:36.579Z,33.09
2023-07-19T02:30:36.665Z,31.15
2023-07-19T02:31:36.781Z,31.45
2023-07-19T02:32:36.860Z,30.84
2023-07-19T02:33:36.823Z,30.88
2023-07-19T02:34:36.851Z,35.78
2023-07-19T02:35:36.893Z,30.40
2023-07-19T02:36:36.964Z,30.85
2023-07-19T02:37:37.024Z,31.32
2023-07-19T02:38:37.063Z,28.23
2023-07-19T02:39:37.142Z,31.92
2023-07-19T02:40:37.198Z,32.27
2023-07-19T02:41:38.208Z,30.27
2023-07-19T02:42:37.315Z,26.62
2023-07-19T02:43:37.373Z,28.64
2023-07-19T02:44:37.436Z,29.71
2023-07-19T02:45:37.474Z,29.84
2023-07-19T02:46:37.584Z,28.25
2023-07-19T02:47:37.654Z,30.93
2023-07-19T02:48:37.668Z,31.34
2023-07-19T02:49:40.561Z,28.33
2023-07-19T02:50:37.714Z,31.47
2023-07-19T02:51:37.704Z,28.64
2023-07-19T02:52:37.687Z,31.95
2023-07-19T02:53:37.708Z,27.25
2023-07-19T02:54:37.644Z,30.06
2023-07-19T02:55:37.674Z,29.44
2023-07-19T02:56:37.677Z,27.20
2023-07-19T02:57:37.655Z,31.00
2023-07-19T02:58:37.654Z,30.22
2023-07-19T02:59:37.631Z,29.97
2023-07-19T03:00:37.684Z,30.96
2023-07-19T03:01:37.636Z,30.39
2023-07-19T03:02:37.706Z,35.02
2023-07-19T03:03:37.698Z,31.82
2023-07-19T03:04:37.588Z,31.38
2023-07-19T03:05:37.579Z,31.05
2023-07-19T03:06:37.600Z,34.24
2023-07-19T03:07:37.579Z,28.69
2023-07-19T03:08:37.559Z,29.33
2023-07-19T03:09:37.572Z,30.67
2023-07-19T03:10:37.579Z,32.92
2023-07-19T03:11:37.524Z,32.04
2023-07-19T03:12:37.577Z,33.22
2023-07-19T03:13:37.521Z,32.32
2023-07-19T03:14:37.532Z,37.12
2023-07-19T03:15:37.540Z,32.06
2023-07-19T03:16:37.531Z,31.30
2023-07-19T03:17:37.514Z,34.58
2023-07-19T03:18:37.501Z,32.05
2023-07-19T03:19:37.497Z,25.88
2023-07-19T03:20:37.512Z,27.87
2023-07-19T03:21:37.480Z,37.19
2023-07-19T03:22:37.480Z,32.84
2023-07-19T03:23:37.499Z,33.21
2023-07-19T03:24:37.477Z,32.42
2023-07-19T03:25:37.466Z,30.43
2023-07-19T03:26:37.465Z,28.03
2023-07-19T03:27:37.488Z,35.72
2023-07-19T03:28:37.547Z,33.80
2023-07-19T03:29:37.660Z,29.57
2023-07-19T03:30:37.728Z,33.87
2023-07-19T03:31:37.714Z,30.46
2023-07-19T03:32:37.870Z,27.56
2023-07-19T03:33:37.869Z,31.35
2023-07-19T03:34:37.900Z,35.83
2023-07-19T03:35:37.986Z,34.57
2023-07-19T03:36:38.025Z,34.07
2023-07-19T03:37:38.065Z,37.94
2023-07-19T03:38:38.126Z,37.03
2023-07-19T03:39:38.222Z,34.53
2023-07-19T03:40:38.258Z,33.87
2023-07-19T03:41:38.329Z,31.35
2023-07-19T03:42:38.398Z,34.33
2023-07-19T03:43:38.456Z,33.91
2023-07-19T03:44:38.483Z,36.61
2023-07-19T03:45:38.567Z,30.98
2023-07-19T03:46:38.738Z,34.07
2023-07-19T03:47:38.721Z,32.27
2023-07-19T03:48:38.756Z,29.96
2023-07-19T03:49:38.846Z,28.87
2023-07-19T03:50:38.871Z,33.75
2023-07-19T03:51:38.963Z,28.88
2023-07-19T03:52:38.960Z,32.57
2023-07-19T03:53:39.037Z,31.16
2023-07-19T03:54:39.097Z,34.24
2023-07-19T03:55:39.138Z,33.19
2023-07-19T03:56:39.219Z,32.36
2023-07-19T03:57:39.300Z,31.29
2023-07-19T03:58:39.348Z,35.43
2023-07-19T03:59:39.404Z,30.65
2023-07-19T04:00:39.456Z,32.07
2023-07-19T04:01:39.585Z,35.16
2023-07-19T04:02:39.648Z,30.83
2023-07-19T04:03:39.701Z,35.90
2023-07-19T04:04:39.736Z,30.05
2023-07-19T04:05:39.807Z,29.84
2023-07-19T04:06:39.834Z,33.15
2023-07-19T04:07:39.908Z,32.09
2023-07-19T04:08:39.992Z,27.59
2023-07-19T04:09:40.001Z,34.65
2023-07-19T04:10:40.069Z,32.31
2023-07-19T04:11:40.189Z,36.76
2023-07-19T04:12:40.222Z,32.28
2023-07-19T04:13:40.274Z,33.65
2023-07-19T04:14:40.423Z,29.79
2023-07-19T04:15:40.386Z,30.93
2023-07-19T04:16:40.533Z,32.15
2023-07-19T04:17:40.547Z,31.31
2023-07-19T04:18:40.671Z,37.68
2023-07-19T04:19:40.642Z,33.56
2023-07-19T04:20:40.694Z,29.65
2023-07-19T04:21:40.775Z,32.96
2023-07-19T04:22:40.866Z,29.66
2023-07-19T04:23:40.867Z,34.50
2023-07-19T04:24:40.955Z,32.01
2023-07-19T04:25:41.021Z,32.40
2023-07-19T04:26:41.090Z,33.51
2023-07-19T04:27:41.136Z,35.38
2023-07-19T04:28:41.209Z,30.21
2023-07-19T04:29:41.267Z,33.84
2023-07-19T04:30:41.353Z,31.35
2023-07-19T04:31:41.371Z,32.55
2023-07-19T04:32:41.549Z,33.02
2023-07-19T04:33:41.521Z,31.18
2023-07-19T04:34:41.581Z,28.43
2023-07-19T04:35:41.617Z,32.54
2023-07-19T04:36:41.696Z,36.60
2023-07-19T04:37:41.791Z,36.80
2023-07-19T04:38:41.823Z,31.57
2023-07-19T04:39:41.906Z,31.85
2023-07-19T04:40:41.945Z,33.69
2023-07-19T04:41:43.321Z,31.83
2023-07-19T04:42:42.030Z,28.27
2023-07-19T04:43:42.109Z,30.81
2023-07-19T04:44:42.181Z,32.33
2023-07-19T04:45:42.214Z,33.18
2023-07-19T04:46:42.356Z,33.42
2023-07-19T04:47:42.385Z,30.67
2023-07-19T04:48:42.414Z,30.47
2023-07-19T04:49:42.478Z,38.27
2023-07-19T04:50:42.546Z,29.60
2023-07-19T04:51:42.585Z,27.68
2023-07-19T04:52:42.675Z,39.86
2023-07-19T04:53:42.683Z,34.08
2023-07-19T04:54:42.752Z,31.42
2023-07-19T04:55:42.864Z,31.65
2023-07-19T04:56:42.920Z,30.01
2023-07-19T04:57:42.964Z,35.91
2023-07-19T04:58:43.009Z,30.08
2023-07-19T04:59:43.082Z,38.36
2023-07-19T05:00:43.147Z,28.60
2023-07-19T05:01:50.697Z,27.07
2023-07-19T05:02:43.223Z,27.66
2023-07-19T05:03:43.177Z,28.93
2023-07-19T05:04:43.168Z,30.45
2023-07-19T05:05:43.137Z,34.37
2023-07-19T05:06:43.159Z,33.24
2023-07-19T05:07:43.162Z,33.64
2023-07-19T05:08:43.132Z,34.23
2023-07-19T05:09:43.139Z,32.72
2023-07-19T05:10:43.123Z,36.33
2023-07-19T05:11:43.110Z,29.94
2023-07-19T05:12:43.125Z,33.25
2023-07-19T05:13:43.131Z,28.56
2023-07-19T05:14:43.092Z,33.80
2023-07-19T05:15:43.108Z,36.79
2023-07-19T05:16:43.131Z,28.80
2023-07-19T05:17:43.154Z,34.68
2023-07-19T05:18:43.079Z,35.37
2023-07-19T05:19:43.152Z,32.69
2023-07-19T05:20:43.243Z,34.67
2023-07-19T05:21:43.275Z,30.41
2023-07-19T05:22:43.395Z,33.68
2023-07-19T05:23:43.411Z,29.10
2023-07-19T05:24:43.487Z,35.71
2023-07-19T05:25:43.571Z,35.25
2023-07-19T05:26:43.637Z,32.82
2023-07-19T05:27:43.666Z,29.75
2023-07-19T05:28:43.726Z,32.03
2023-07-19T05:29:43.804Z,28.92
2023-07-19T05:30:43.849Z,30.93
2023-07-19T05:31:43.987Z,31.80
2023-07-19T05:32:44.082Z,35.00
2023-07-19T05:33:44.058Z,29.17
2023-07-19T05:34:44.112Z,29.44
2023-07-19T05:35:44.206Z,33.87
2023-07-19T05:36:44.234Z,29.65
2023-07-19T05:37:44.330Z,30.05
2023-07-19T05:38:44.367Z,36.74
2023-07-19T05:39:44.432Z,34.11
2023-07-19T05:40:44.496Z,32.26
2023-07-19T05:41:44.577Z,30.27
2023-07-19T05:42:44.602Z,34.31
2023-07-19T05:43:45.808Z,30.05
2023-07-19T05:44:44.732Z,37.30
2023-07-19T05:45:44.824Z,32.21
2023-07-19T05:46:44.879Z,31.34
2023-07-19T05:47:44.958Z,27.86
2023-07-19T05:48:44.998Z,29.50
2023-07-19T05:49:45.082Z,27.86
2023-07-19T05:50:45.127Z,37.32
2023-07-19T05:51:45.204Z,34.57
2023-07-19T05:52:45.250Z,33.06
2023-07-19T05:53:45.309Z,33.83
2023-07-19T05:54:45.616Z,32.05
2023-07-19T05:55:45.455Z,27.72
2023-07-19T05:56:45.490Z,30.35
2023-07-19T05:57:45.559Z,31.32
2023-07-19T05:58:45.642Z,27.03
2023-07-19T05:59:45.704Z,31.39
2023-07-19T06:00:45.796Z,28.25
2023-07-19T06:01:45.953Z,27.43
2023-07-19T06:02:53.552Z,28.94
2023-07-19T06:03:47.013Z,29.19
2023-07-19T06:04:45.948Z,29.72
2023-07-19T06:05:45.866Z,31.69
2023-07-19T06:06:45.881Z,30.13
2023-07-19T06:07:45.842Z,31.06
2023-07-19T06:08:45.871Z,32.83
2023-07-19T06:09:45.853Z,28.34
2023-07-19T06:10:45.830Z,33.11
2023-07-19T06:11:45.855Z,34.08
2023-07-19T06:12:45.833Z,40.93
2023-07-19T06:13:45.892Z,27.72
2023-07-19T06:14:45.958Z,28.26
2023-07-19T06:15:46.110Z,32.38
2023-07-19T06:16:46.088Z,30.15
2023-07-19T06:17:46.155Z,31.94
2023-07-19T06:18:46.273Z,32.79
2023-07-19T06:19:46.276Z,28.31
2023-07-19T06:20:46.356Z,30.86
2023-07-19T06:21:46.424Z,25.60
2023-07-19T06:22:46.516Z,30.87
2023-07-19T06:23:46.560Z,29.65
2023-07-19T06:24:46.615Z,32.64
2023-07-19T06:25:46.671Z,29.93
2023-07-19T06:26:46.720Z,30.83
2023-07-19T06:27:46.817Z,33.60
2023-07-19T06:28:46.875Z,33.19
2023-07-19T06:29:46.899Z,31.61
2023-07-19T06:30:47.012Z,34.22
2023-07-19T06:31:47.132Z,37.36
2023-07-19T06:32:47.131Z,28.21
2023-07-19T06:33:47.168Z,28.79
2023-07-19T06:34:47.230Z,36.99
2023-07-19T06:35:47.304Z,28.58
2023-07-19T06:36:47.360Z,36.37
2023-07-19T06:37:47.422Z,32.94
2023-07-19T06:38:47.493Z,30.68
2023-07-19T06:39:47.589Z,32.30
2023-07-19T06:40:47.605Z,33.34
2023-07-19T06:41:47.647Z,27.80
2023-07-19T06:42:47.749Z,40.58
2023-07-19T06:43:47.797Z,32.03
2023-07-19T06:44:47.824Z,30.65
2023-07-19T06:45:47.890Z,34.46
2023-07-19T06:46:47.978Z,34.21
2023-07-19T06:47:48.046Z,33.07
2023-07-19T06:48:48.120Z,31.40
2023-07-19T06:49:48.151Z,33.33
2023-07-19T06:50:48.189Z,33.21
2023-07-19T06:51:48.279Z,31.17
2023-07-19T06:52:48.320Z,35.09
2023-07-19T06:53:53.013Z,34.02
2023-07-19T06:54:49.373Z,34.14
2023-07-19T06:55:48.376Z,31.40
2023-07-19T06:56:48.408Z,32.23
2023-07-19T06:57:48.398Z,34.72
2023-07-19T06:58:48.351Z,34.79
2023-07-19T06:59:48.352Z,32.03
2023-07-19T07:00:48.364Z,32.70
2023-07-19T07:01:48.359Z,31.23
2023-07-19T07:02:48.411Z,29.39
2023-07-19T07:03:48.352Z,29.94
2023-07-19T07:04:48.287Z,26.88
2023-07-19T07:05:48.369Z,25.00
2023-07-19T07:06:48.435Z,32.38
2023-07-19T07:07:48.466Z,31.89
2023-07-19T07:08:48.526Z,31.78
2023-07-19T07:09:48.660Z,28.25
2023-07-19T07:10:48.675Z,32.23
2023-07-19T07:11:48.725Z,29.75
2023-07-19T07:12:48.729Z,32.04
2023-07-19T07:13:48.816Z,34.67
2023-07-19T07:14:50.963Z,34.86
2023-07-19T07:15:48.906Z,34.38
2023-07-19T07:16:48.990Z,34.26
2023-07-19T07:17:49.177Z,32.54
2023-07-19T07:18:49.057Z,29.87
2023-07-19T07:19:49.107Z,33.61
2023-07-19T07:20:49.197Z,29.74
2023-07-19T07:21:49.253Z,29.86
2023-07-19T07:22:49.317Z,32.08
2023-07-19T07:23:49.339Z,26.89
2023-07-19T07:24:49.384Z,27.83
2023-07-19T07:25:49.427Z,25.54
2023-07-19T07:26:49.484Z,28.01
2023-07-19T07:27:49.504Z,33.96
2023-07-19T07:28:49.595Z,26.27
2023-07-19T07:29:49.607Z,27.49
2023-07-19T07:30:49.706Z,30.56
2023-07-19T07:31:49.707Z,35.18
2023-07-19T07:32:49.806Z,28.38
2023-07-19T07:33:49.820Z,30.05
2023-07-19T07:34:49.845Z,37.58
2023-07-19T07:35:49.915Z,30.46
2023-07-19T07:36:49.954Z,34.95
2023-07-19T07:37:49.977Z,32.22
2023-07-19T07:38:50.028Z,33.18
2023-07-19T07:39:50.090Z,34.29
2023-07-19T07:40:50.118Z,32.15
2023-07-19T07:41:50.172Z,31.65
2023-07-19T07:42:50.226Z,34.33
2023-07-19T07:43:50.298Z,33.42
2023-07-19T07:44:50.329Z,33.74
2023-07-19T07:45:50.368Z,36.65
2023-07-19T07:46:50.487Z,32.99
2023-07-19T07:47:50.508Z,37.90
2023-07-19T07:48:50.509Z,39.85
2023-07-19T07:49:50.544Z,32.54
2023-07-19T07:50:50.608Z,38.75
2023-07-19T07:51:50.649Z,38.58
2023-07-19T07:53:02.379Z,37.61
2023-07-19T07:53:51.730Z,37.90
2023-07-19T07:54:50.719Z,38.11
2023-07-19T07:55:50.685Z,39.02
2023-07-19T07:56:50.691Z,39.18
2023-07-19T07:57:50.700Z,40.21
2023-07-19T07:58:50.676Z,36.27
2023-07-19T07:59:50.656Z,37.97
2023-07-19T08:00:50.728Z,41.25
2023-07-19T08:01:50.651Z,39.62
2023-07-19T08:02:50.723Z,41.36
2023-07-19T08:03:50.668Z,41.09
2023-07-19T08:04:50.629Z,40.81
2023-07-19T08:05:50.682Z,38.02
2023-07-19T08:06:50.720Z,37.90
2023-07-19T08:07:50.767Z,41.87
2023-07-19T08:08:50.842Z,39.53
2023-07-19T08:09:50.887Z,41.46
2023-07-19T08:10:50.936Z,41.09
2023-07-19T08:11:50.980Z,38.16
2023-07-19T08:12:51.046Z,38.94
2023-07-19T08:13:51.070Z,41.35
2023-07-19T08:14:51.123Z,37.73
2023-07-19T08:15:51.185Z,35.60
2023-07-19T08:16:51.288Z,39.10
2023-07-19T08:17:51.319Z,39.22
2023-07-19T08:18:51.324Z,38.20
2023-07-19T08:19:51.419Z,34.91
2023-07-19T08:20:51.422Z,36.36
2023-07-19T08:21:51.489Z,40.64
2023-07-19T08:22:51.553Z,35.28
2023-07-19T08:23:51.596Z,35.16
2023-07-19T08:24:51.638Z,34.61
2023-07-19T08:25:51.683Z,34.51
2023-07-19T08:26:51.760Z,35.54
2023-07-19T08:27:51.764Z,38.28
2023-07-19T08:28:51.812Z,31.04
2023-07-19T08:29:51.932Z,33.79
2023-07-19T08:30:51.992Z,31.24
2023-07-19T08:31:51.939Z,32.95
2023-07-19T08:32:52.093Z,33.37
2023-07-19T08:33:52.077Z,35.40
2023-07-19T08:34:52.093Z,33.71
2023-07-19T08:35:52.172Z,35.62
2023-07-19T08:36:52.171Z,35.84
2023-07-19T08:37:52.225Z,38.58
2023-07-19T08:38:52.247Z,38.51
2023-07-19T08:39:52.290Z,38.00
2023-07-19T08:40:52.306Z,36.87
2023-07-19T08:41:52.360Z,37.77
2023-07-19T08:42:52.374Z,38.70
2023-07-19T08:43:52.419Z,42.78
2023-07-19T08:44:52.457Z,40.26
2023-07-19T08:45:52.595Z,42.03
2023-07-19T08:46:52.566Z,41.60
2023-07-19T08:47:52.544Z,40.71
2023-07-19T08:48:52.596Z,41.10
2023-07-19T08:49:52.673Z,40.61
2023-07-19T08:50:52.659Z,41.28
2023-07-19T08:51:52.688Z,40.44
2023-07-19T08:52:52.747Z,41.61
2023-07-19T08:53:52.786Z,41.64
2023-07-19T08:54:52.814Z,41.62
2023-07-19T08:55:52.868Z,41.44
2023-07-19T08:56:52.970Z,44.05
2023-07-19T08:57:52.907Z,42.35
2023-07-19T08:58:52.940Z,45.65
2023-07-19T08:59:52.992Z,47.00
2023-07-19T09:00:53.039Z,40.49
2023-07-19T09:01:53.089Z,43.52
2023-07-19T09:02:53.182Z,41.25
2023-07-19T09:03:53.185Z,43.24
2023-07-19T09:04:53.151Z,40.90
2023-07-19T09:05:53.269Z,43.80
2023-07-19T09:06:53.248Z,39.30
2023-07-19T09:07:53.297Z,41.84
2023-07-19T09:08:53.343Z,42.10
2023-07-19T09:09:53.364Z,42.48
2023-07-19T09:10:53.405Z,42.42
2023-07-19T09:11:53.494Z,46.41
2023-07-19T09:12:53.511Z,44.75
2023-07-19T09:13:53.542Z,41.75
2023-07-19T09:14:53.611Z,44.73
2023-07-19T09:15:53.654Z,47.43
2023-07-19T09:16:53.683Z,46.25
2023-07-19T09:17:53.793Z,40.61
2023-07-19T09:18:53.914Z,45.24
2023-07-19T09:19:53.831Z,42.28
2023-07-19T09:20:53.897Z,44.43
2023-07-19T09:21:53.913Z,43.08
2023-07-19T09:22:54.047Z,44.96
2023-07-19T09:23:54.022Z,44.17
2023-07-19T09:24:54.052Z,46.32
2023-07-19T09:25:54.094Z,46.58
2023-07-19T09:26:54.196Z,47.04
2023-07-19T09:27:54.212Z,43.64
2023-07-19T09:28:54.252Z,46.47
2023-07-19T09:29:54.279Z,43.58
2023-07-19T09:30:54.327Z,44.01
2023-07-19T09:31:54.465Z,42.96
2023-07-19T09:32:54.426Z,44.25
2023-07-19T09:33:54.461Z,45.97
2023-07-19T09:34:54.494Z,44.46
2023-07-19T09:35:54.545Z,47.85
2023-07-19T09:36:54.560Z,46.32
2023-07-19T09:37:54.610Z,40.99
2023-07-19T09:38:54.795Z,43.66
2023-07-19T09:39:54.668Z,44.48
2023-07-19T09:40:54.701Z,43.11
2023-07-19T09:41:54.747Z,44.25
2023-07-19T09:42:54.771Z,45.33
2023-07-19T09:43:54.787Z,41.55
2023-07-19T09:44:54.880Z,45.84
2023-07-19T09:45:54.872Z,44.20
2023-07-19T09:46:54.881Z,44.75
2023-07-19T09:47:54.967Z,43.75
2023-07-19T09:48:54.956Z,43.22
2023-07-19T09:49:54.961Z,43.23
2023-07-19T09:50:55.000Z,40.98
2023-07-19T09:51:54.993Z,42.45
2023-07-19T09:52:55.027Z,40.02
2023-07-19T09:53:55.028Z,41.48
2023-07-19T09:54:55.086Z,43.95
2023-07-19T09:55:55.065Z,39.47
2023-07-19T09:56:55.059Z,40.18
2023-07-19T09:57:55.074Z,41.06
2023-07-19T09:58:55.079Z,41.45
2023-07-19T09:59:55.107Z,41.98
2023-07-19T10:00:55.112Z,39.72
2023-07-19T10:01:55.155Z,40.45
2023-07-19T10:02:55.174Z,41.73
2023-07-19T10:03:55.115Z,41.64
2023-07-19T10:04:55.120Z,38.32
2023-07-19T10:05:55.203Z,41.76
2023-07-19T10:06:55.114Z,39.70
2023-07-19T10:07:55.129Z,39.02
2023-07-19T10:08:55.131Z,42.77
2023-07-19T10:09:55.134Z,43.06
2023-07-19T10:10:55.125Z,41.82
2023-07-19T10:11:55.144Z,40.98
2023-07-19T10:12:55.153Z,41.37
2023-07-19T10:14:05.940Z,39.86
2023-07-19T10:14:56.127Z,40.15
2023-07-19T10:15:55.122Z,40.35
2023-07-19T10:16:55.134Z,41.16
2023-07-19T10:17:55.207Z,41.63
2023-07-19T10:18:55.095Z,44.31
2023-07-19T10:19:55.088Z,42.18
2023-07-19T10:20:57.269Z,40.74
2023-07-19T10:21:55.124Z,40.94
2023-07-19T10:22:55.207Z,41.28
2023-07-19T10:23:55.088Z,41.30
2023-07-19T10:24:55.057Z,42.18
2023-07-19T10:25:55.050Z,44.32
2023-07-19T10:26:55.049Z,45.06
2023-07-19T10:27:55.065Z,45.59
2023-07-19T10:28:55.079Z,43.71
2023-07-19T10:29:55.019Z,43.78
2023-07-19T10:30:55.062Z,42.35
2023-07-19T10:31:55.014Z,43.73
2023-07-19T10:32:55.044Z,43.41
2023-07-19T10:33:55.146Z,43.55
2023-07-19T10:34:54.997Z,42.67
2023-07-19T10:35:55.031Z,45.32
2023-07-19T10:36:55.010Z,42.31
2023-07-19T10:37:54.986Z,42.47
2023-07-19T10:38:55.005Z,43.28
2023-07-19T10:39:54.977Z,41.94
2023-07-19T10:40:54.947Z,42.84
2023-07-19T10:41:54.954Z,44.07
2023-07-19T10:42:54.958Z,46.61
2023-07-19T10:43:55.169Z,43.50
2023-07-19T10:44:54.931Z,46.03
2023-07-19T10:45:54.966Z,46.37
2023-07-19T10:46:54.940Z,46.79
2023-07-19T10:47:54.970Z,44.93
2023-07-19T10:48:55.009Z,47.48
2023-07-19T10:49:54.929Z,46.80
2023-07-19T10:50:54.868Z,46.93
2023-07-19T10:51:54.907Z,45.49
2023-07-19T10:52:54.876Z,45.34
2023-07-19T10:53:54.890Z,42.69
2023-07-19T10:55:02.142Z,43.68
2023-07-19T10:55:55.865Z,44.04
2023-07-19T10:56:54.881Z,44.68
2023-07-19T10:57:54.865Z,45.66
2023-07-19T10:58:54.851Z,47.14
2023-07-19T10:59:54.844Z,47.74
2023-07-19T11:00:54.871Z,49.81
2023-07-19T11:01:54.801Z,47.53
2023-07-19T11:02:54.935Z,48.77
2023-07-19T11:03:54.892Z,47.86
2023-07-19T11:04:54.953Z,49.21
2023-07-19T11:05:55.021Z,47.66
2023-07-19T11:06:55.069Z,48.40
2023-07-19T11:07:55.137Z,48.37
2023-07-19T11:08:55.204Z,46.82
2023-07-19T11:09:55.244Z,46.46
2023-07-19T11:10:55.357Z,46.24
2023-07-19T11:11:55.410Z,45.95
2023-07-19T11:12:55.433Z,47.23
2023-07-19T11:13:55.509Z,47.37
2023-07-19T11:14:55.553Z,44.77
2023-07-19T11:15:55.643Z,49.10
2023-07-19T11:16:55.720Z,48.60
2023-07-19T11:17:55.783Z,49.68
2023-07-19T11:18:55.825Z,47.23
2023-07-19T11:19:55.865Z,47.94
2023-07-19T11:20:55.962Z,48.72
2023-07-19T11:21:55.994Z,48.33
2023-07-19T11:22:56.092Z,49.17
2023-07-19T11:23:56.101Z,50.22
2023-07-19T11:24:56.199Z,51.13
2023-07-19T11:25:56.210Z,51.71
2023-07-19T11:26:56.273Z,48.97
2023-07-19T11:27:56.324Z,50.83
2023-07-19T11:28:56.392Z,51.31
2023-07-19T11:29:56.460Z,49.79
2023-07-19T11:30:56.500Z,48.82
2023-07-19T11:31:56.544Z,50.29
2023-07-19T11:32:56.703Z,50.87
2023-07-19T11:33:56.759Z,50.28
2023-07-19T11:34:56.826Z,49.76
2023-07-19T11:35:56.834Z,52.76
2023-07-19T11:36:56.862Z,52.24
2023-07-19T11:37:56.947Z,48.02
2023-07-19T11:38:57.001Z,49.51
2023-07-19T11:39:57.060Z,53.08
2023-07-19T11:40:57.134Z,53.62
2023-07-19T11:41:57.180Z,56.89
2023-07-19T11:42:57.260Z,50.71
2023-07-19T11:43:57.314Z,55.19
2023-07-19T11:44:57.371Z,52.25
2023-07-19T11:45:57.443Z,51.72
2023-07-19T11:46:57.497Z,50.87
2023-07-19T11:47:57.585Z,54.15
2023-07-19T11:48:57.699Z,55.65
2023-07-19T11:49:57.693Z,51.74
2023-07-19T11:50:57.727Z,56.67
2023-07-19T11:51:57.790Z,53.51
2023-07-19T11:52:57.889Z,54.30
2023-07-19T11:53:58.083Z,55.86
2023-07-19T11:54:57.971Z,51.63
2023-07-19T11:56:58.053Z,56.63
2023-07-19T11:57:58.050Z,56.06
2023-07-19T11:58:58.060Z,54.24
2023-07-19T11:59:58.046Z,57.27
2023-07-19T12:00:58.064Z,55.26
2023-07-19T12:01:58.028Z,54.53
2023-07-19T12:02:58.137Z,56.37
2023-07-19T12:03:58.074Z,55.67
2023-07-19T12:04:57.998Z,56.99
2023-07-19T12:05:57.993Z,56.87
2023-07-19T12:06:57.965Z,57.30
2023-07-19T12:07:58.001Z,57.74
2023-07-19T12:08:58.019Z,56.78
2023-07-19T12:09:57.973Z,55.71
2023-07-19T12:10:57.943Z,57.00
2023-07-19T12:11:57.967Z,57.66
2023-07-19T12:12:57.951Z,55.81
2023-07-19T12:13:57.957Z,53.87
2023-07-19T12:14:57.909Z,56.22
2023-07-19T12:15:57.923Z,54.97
2023-07-19T12:16:57.977Z,55.52
2023-07-19T12:17:58.009Z,55.49
2023-07-19T12:18:57.925Z,56.65
2023-07-19T12:19:57.915Z,57.72
2023-07-19T12:20:57.932Z,60.50
2023-07-19T12:21:57.901Z,56.67
2023-07-19T12:22:57.970Z,56.11
2023-07-19T12:23:59.374Z,56.48
2023-07-19T12:24:57.898Z,59.39
2023-07-19T12:25:57.848Z,60.46
2023-07-19T12:26:57.875Z,57.81
2023-07-19T12:27:57.890Z,58.08
2023-07-19T12:28:57.912Z,58.12
2023-07-19T12:30:01.272Z,59.31
2023-07-19T12:30:58.876Z,59.55
2023-07-19T12:31:57.829Z,59.76
2023-07-19T12:32:57.894Z,60.41
2023-07-19T12:33:57.860Z,60.85
2023-07-19T12:34:57.808Z,62.23
2023-07-19T12:35:57.811Z,63.95
2023-07-19T12:36:57.782Z,60.36
2023-07-19T12:37:57.814Z,59.37
2023-07-19T12:38:57.848Z,60.92
2023-07-19T12:39:57.938Z,58.83
2023-07-19T12:40:57.992Z,61.49
2023-07-19T12:41:58.045Z,60.70
2023-07-19T12:42:58.089Z,61.44
2023-07-19T12:43:58.177Z,59.56
2023-07-19T12:44:58.228Z,61.60
2023-07-19T12:45:58.322Z,61.86
2023-07-19T12:46:58.391Z,63.63
2023-07-19T12:47:58.435Z,61.31
2023-07-19T12:48:58.463Z,60.72
2023-07-19T12:49:58.486Z,61.62
2023-07-19T12:50:58.584Z,57.28
2023-07-19T12:51:58.633Z,60.81
2023-07-19T12:52:58.713Z,61.82
2023-07-19T12:53:58.732Z,60.40